EDQMLKKV

Guest
Details From EDQM - Hof Plauen
To LKKV - Karlovy Vary
Flight Number -
Tags generated
Created
Modified
Stats Distance 41 nm / 77 km
Max Altitude 4,500 ft / 1,372 m
Waypoints 3
Social Downloads 1
Likes 0
Share VATSIM

Download

Looking for another format? Having issues loading an existing format? Contact us
Advertisement - Login to hide

Notes

Basic altitude profile: - Ascent Rate: 2500ft/min - Ascent Speed: 250kts - Cruise Altitude: 35000ft - Cruise Speed: 420kts - Descent Rate: 1500ft/min - Descent Speed: 250kts Options: - Use NATs: yes - Use PACOTS: yes - Use low airways: yes - Use high airways: yes

Route

EDQM VARIK LKKV

ID Type Via Altitude Latitude Longitude Leg Dist Tot Dist Heading (true) Name
O EDQM APT - 0 ft / 0 m 50.28864˚ 11.85406˚ - 0 nm - Hof Plauen
VARIK FIX - 4,500 ft / 1,372 m 50.29111˚ 12.38111˚ 20 nm 20 nm 89° / 90° -
O LKKV APT - 0 ft / 0 m 50.20349˚ 12.91446˚ 21 nm 41 nm 104° / 105° Karlovy Vary

Altitude Profile

Advertisement - Login to hide

EDQM

Details ICAO EDQM (HOQ)
Name Hof Plauen
Region Germany - Civil
Timezone Europe/Berlin (UTC+2.0)
Stats Elevation 1,960 ft / 597 m (AMSL)
Location 50.288643° 11.854065°
Runways 1
Magnetic Variation 3.303° E

METAR

EDQM 251020Z 11004KT 070V140 7000 FEW006 SCT025 BKN045 15/13 Q1021

Decode

TAF

Not found

Departure Runways

ID Width Length Bearing (true) Bearing (mag) Surface Threshold Offset Overrun Length
09 98 ft / 30 m 4,842 ft / 1,476 m 86.76° 83.46° Asphalt 788 ft / 240 m 0 ft / 0 m
27 98 ft / 30 m 4,842 ft / 1,476 m 266.78° 263.48° Asphalt 197 ft / 60 m 0 ft / 0 m

LKKV

Details ICAO LKKV (KLV)
Name Karlovy Vary
Region Czech Republic
Timezone Europe/Prague (UTC+2.0)
Stats Elevation 1,988 ft / 606 m (AMSL)
Location 50.203487° 12.914461°
Runways 2
Magnetic Variation 3.578° E

METAR

LKKV 251030Z VRB02KT 9999 FEW025 SCT038 17/13 Q1020

Decode

TAF

TAF LKKV 242300Z 2500/2606 VRB02KT 9999 BKN033 TEMPO 2500/2507 6000 -RA BKN025 PROB30 TEMPO 2503/2506 1500 BCFG BKN003 TEMPO 2507/2515 09008KT 8000 SHRA SCT020CB TEMPO 2602/2606 2000 MIFG SCT007

Decode

Destination Runways

ID Width Length Bearing (true) Bearing (mag) Surface Threshold Offset Overrun Length
11 98 ft / 30 m 7,049 ft / 2,149 m 113.09° 109.51° Asphalt 495 ft / 151 m 0 ft / 0 m
12 98 ft / 30 m 3,351 ft / 1,021 m 113.19° 109.61° Grass 0 ft / 0 m 0 ft / 0 m
29 98 ft / 30 m 7,049 ft / 2,149 m 293.11° 289.53° Asphalt 0 ft / 0 m 0 ft / 0 m
30 98 ft / 30 m 3,351 ft / 1,021 m 293.20° 289.62° Grass 0 ft / 0 m 0 ft / 0 m

Approach Navaids

Runway Type Ident Frequency Range Bearing (true) Bearing (mag) Slope Elevation
29 Localiser KVY 111.55 MHz 18 nm / 33 km 293.13° 289.55° - 1,988 ft / 606 m (AMSL)
29 DME KVY 111.55 MHz 18 nm / 33 km - - - 1,998 ft / 609 m (AMSL)